Terminal Aerodrome Forecast
Issued by NWS

Home | Current Version | Previous Version | Text Only | Print | Product List | Glossary On
Versions: 1 2 3 4 5 6 7 8 9 10 11 12 13 14 15
177
FTUS45 KRIW 232333
TAFWRL
TAF
KWRL 232333Z 2400/2424 02008KT P6SM VCSH SCT008 OVC012
      TEMPO 2400/2404 5SM -SN
     FM240400 33011KT 2SM -SN BKN009 OVC020
      TEMPO 2408/2412 1SM -SN BKN009 OVC015
     FM241700 33007KT 4SM -SN SCT011 BKN018 OVC025
     FM242200 VRB05KT P6SM VCSH BKN020 OVC030=

USA.gov is the U.S. government's official web portal to all federal, state and local government web resources and services.